This is the latest recevied weather packets stored in our database for station/object E7HQ-1. If no packets are shown the sender has not sent any weather packets the latest 10 day(s).
| Time | Temp. | Humidity | Pressure | Rain* | Wind** | Luminosity | Snow |
|---|---|---|---|---|---|---|---|
| 1777478212 | 10.56° C | 65% | 1028.7 hPa | - | - | - | - |
| 1777477312 | 10.56° C | 65% | 1028.8 hPa | - | - | - | - |
| 1777476412 | 10.56° C | 64% | 1028.8 hPa | - | - | - | - |
| 1777475512 | 11.11° C | 62% | 1028.7 hPa | - | - | - | - |
| 1777474612 | 11.67° C | 62% | 1028.7 hPa | - | - | - | - |
| 1777473711 | 11.67° C | 60% | 1028.6 hPa | - | - | - | - |
| 1777472811 | 12.22° C | 57% | 1028.8 hPa | - | - | - | - |
| 1777471910 | 13.33° C | 54% | 1028.6 hPa | - | - | - | - |
| 1777471010 | 13.89° C | 53% | 1028.6 hPa | - | - | - | - |
| 1777470110 | 14.44° C | 51% | 1028.5 hPa | - | - | - | - |
| 1777469209 | 14.44° C | 51% | 1028.5 hPa | - | - | - | - |
| 1777468309 | 14.44° C | 51% | 1028.4 hPa | - | - | - | - |
| 1777467409 | 14.44° C | 51% | 1028.5 hPa | - | - | - | - |
| 1777466509 | 13.89° C | 50% | 1028.6 hPa | - | - | - | - |
| 1777465608 | 14.44° C | 49% | 1028.5 hPa | - | - | - | - |
| 1777464714 | 15.56° C | 48% | 1028.5 hPa | - | - | - | - |
| 1777463814 | 15.56° C | 48% | 1028.5 hPa | - | - | - | - |
| 1777462914 | 15.56° C | 46% | 1028.7 hPa | - | - | - | - |
| 1777462014 | 16.11° C | 46% | 1028.6 hPa | - | - | - | - |
| 1777461114 | 16.67° C | 46% | 1028.8 hPa | - | - | - | - |
| 1777460213 | 16.67° C | 49% | 1028.8 hPa | - | - | - | - |
| 1777459313 | 15° C | 50% | 1029 hPa | - | - | - | - |
| 1777458413 | 13.89° C | 50% | 1029.1 hPa | - | - | - | - |
| 1777457513 | 13.89° C | 50% | 1029.2 hPa | - | - | - | - |
| 1777456612 | 14.44° C | 47% | 1029.1 hPa | - | - | - | - |
* Rain since midnight (hover to see other rain measurements)
** Current wind speed in m/s (hover to see current wind gust speed)